Time;durP1;ratioP1;P1;durP2;ratioP2;P2;SDS_P1;SDS_P2;PMS_P1;PMS_P2;Temp;Humidity;BMP_temperature;BMP_pressure;BME280_temperature;BME280_humidity;BME280_pressure;Samples;Min_cycle;Max_cycle;Signal;HPM_P1;HPM_P2
2022/07/13 00:01:48;;;;;;;3.93;3.13;;;22.20;99.90;;;;;;5079900;28;20581;-72
2022/07/13 00:04:15;;;;;;;4.00;3.10;;;22.20;99.90;;;;;;5083122;28;21014;-72
2022/07/13 00:06:42;;;;;;;3.77;3.23;;;22.20;99.90;;;;;;5078248;28;20463;-73
2022/07/13 00:09:09;;;;;;;3.37;3.07;;;22.30;99.90;;;;;;5084564;28;20465;-73
2022/07/13 00:11:37;;;;;;;4.80;3.33;;;22.50;99.90;;;;;;5073450;28;20482;-72
2022/07/13 00:14:04;;;;;;;5.43;3.90;;;22.50;99.90;;;;;;5075968;28;20457;-72
2022/07/13 00:16:31;;;;;;;5.20;3.90;;;22.30;99.90;;;;;;5081537;28;20496;-72
2022/07/13 00:18:58;;;;;;;5.70;3.60;;;22.00;99.90;;;;;;5080047;28;20958;-72
2022/07/13 00:21:25;;;;;;;3.73;3.40;;;21.80;99.90;;;;;;5079785;28;20486;-72
2022/07/13 00:23:52;;;;;;;5.60;3.20;;;21.60;99.90;;;;;;5078663;28;20449;-71
2022/07/13 00:26:19;;;;;;;3.70;3.23;;;21.80;99.90;;;;;;5082220;28;20454;-72
2022/07/13 00:28:47;;;;;;;4.40;4.00;;;22.00;99.90;;;;;;5070186;28;20462;-72
2022/07/13 00:31:14;;;;;;;4.87;3.17;;;22.20;99.90;;;;;;5078916;28;20470;-72
2022/07/13 00:33:41;;;;;;;5.03;3.20;;;22.20;99.90;;;;;;5064244;28;21908;-72
2022/07/13 00:36:08;;;;;;;4.90;3.47;;;22.40;99.90;;;;;;5075005;28;20458;-72
2022/07/13 00:38:36;;;;;;;4.13;3.73;;;22.40;99.90;;;;;;5080588;28;20468;-72
2022/07/13 00:41:05;;;;;;;4.07;3.47;;;22.50;99.90;;;;;;5074799;28;20521;-72
2022/07/13 00:43:32;;;;;;;4.50;3.60;;;22.60;99.90;;;;;;5061478;28;20531;-72
2022/07/13 00:46:00;;;;;;;4.20;3.47;;;22.60;99.90;;;;;;5077235;28;20493;-72
2022/07/13 00:48:27;;;;;;;6.43;3.50;;;22.50;99.90;;;;;;5083334;28;20461;-72
2022/07/13 00:50:55;;;;;;;3.50;2.90;;;22.50;99.90;;;;;;5078416;28;20478;-72
2022/07/13 00:53:23;;;;;;;5.43;4.03;;;22.50;99.90;;;;;;5079507;28;20459;-72
2022/07/13 00:55:51;;;;;;;4.20;3.40;;;22.50;99.90;;;;;;5076574;28;21056;-71
2022/07/13 00:58:18;;;;;;;17.53;4.43;;;22.40;99.90;;;;;;5074514;28;20537;-71
2022/07/13 01:00:45;;;;;;;4.13;3.73;;;22.40;99.90;;;;;;5076754;28;21011;-72
2022/07/13 01:03:14;;;;;;;4.47;4.07;;;22.20;99.90;;;;;;5075932;28;20489;-72
2022/07/13 01:05:43;;;;;;;6.80;4.03;;;22.10;99.90;;;;;;5076743;28;20833;-72
2022/07/13 01:08:10;;;;;;;6.10;4.37;;;21.90;99.90;;;;;;5073878;28;20730;-72
2022/07/13 01:10:38;;;;;;;4.13;3.70;;;21.90;99.90;;;;;;5073414;28;20454;-72
2022/07/13 01:13:07;;;;;;;5.23;4.83;;;21.70;99.90;;;;;;5067401;28;20474;-73
2022/07/13 01:15:34;;;;;;;8.43;4.70;;;21.80;99.90;;;;;;5073604;28;20919;-72
2022/07/13 01:18:02;;;;;;;6.90;4.53;;;21.80;99.90;;;;;;5078626;28;21001;-72
2022/07/13 01:20:31;;;;;;;5.63;4.80;;;21.90;99.90;;;;;;5080069;28;20481;-73
2022/07/13 01:23:05;;;;;;;5.80;5.00;;;21.90;99.90;;;;;;5071510;28;20467;-72
2022/07/13 01:25:32;;;;;;;7.80;5.80;;;21.90;99.90;;;;;;5084838;28;20799;-72
2022/07/13 01:27:59;;;;;;;7.63;4.50;;;21.60;99.90;;;;;;5065613;28;20486;-72
2022/07/13 01:30:26;;;;;;;8.60;5.50;;;21.70;99.90;;;;;;5073115;28;20454;-72
2022/07/13 01:32:53;;;;;;;5.70;4.93;;;21.60;99.90;;;;;;5082003;28;20456;-72
2022/07/13 01:35:22;;;;;;;5.47;4.67;;;21.60;99.90;;;;;;5072437;28;20450;-73
2022/07/13 01:37:49;;;;;;;5.90;5.00;;;21.60;99.90;;;;;;5080001;28;20461;-72
2022/07/13 01:40:18;;;;;;;8.30;5.40;;;21.70;99.90;;;;;;5075877;28;20582;-72
2022/07/13 01:42:46;;;;;;;6.80;5.10;;;21.50;99.90;;;;;;5069388;28;21041;-72
2022/07/13 01:45:15;;;;;;;6.70;6.10;;;21.60;99.90;;;;;;5074740;28;20823;-72
2022/07/13 01:47:43;;;;;;;6.20;5.30;;;21.70;99.90;;;;;;5083155;28;20434;-73
2022/07/13 01:50:12;;;;;;;11.87;5.80;;;21.60;99.90;;;;;;5085185;28;20986;-72
2022/07/13 01:52:39;;;;;;;5.30;4.80;;;21.40;99.90;;;;;;5114959;22;20588;-72
2022/07/13 01:55:08;;;;;;;5.60;4.80;;;21.30;99.90;;;;;;5092608;28;20458;-71
2022/07/13 01:57:37;;;;;;;6.33;5.70;;;21.10;99.90;;;;;;5087949;28;21126;-72
2022/07/13 02:00:09;;;;;;;9.60;5.40;;;21.10;99.90;;;;;;5091918;28;20853;-71
2022/07/13 02:02:36;;;;;;;7.00;6.00;;;21.00;99.90;;;;;;5089849;28;20481;-71
2022/07/13 02:05:04;;;;;;;8.30;5.80;;;20.90;99.90;;;;;;5093567;28;20812;-71
2022/07/13 02:07:31;;;;;;;5.97;5.37;;;20.60;99.90;;;;;;5089549;28;20457;-71
2022/07/13 02:09:57;;;;;;;5.80;5.07;;;20.60;99.90;;;;;;5096523;28;20450;-72
2022/07/13 02:12:24;;;;;;;6.70;5.30;;;20.70;99.90;;;;;;5091775;28;20499;-72
2022/07/13 02:14:52;;;;;;;6.27;5.67;;;20.80;99.90;;;;;;5091300;28;20450;-72
2022/07/13 02:17:19;;;;;;;8.03;5.93;;;20.80;99.90;;;;;;5089716;28;20472;-71
2022/07/13 02:19:46;;;;;;;10.47;6.07;;;20.70;99.90;;;;;;5090047;28;20464;-72
2022/07/13 02:22:13;;;;;;;12.30;5.67;;;20.70;99.90;;;;;;5092371;28;20477;-71
2022/07/13 02:24:40;;;;;;;9.57;6.20;;;20.80;99.90;;;;;;5091013;28;20617;-72
2022/07/13 02:27:07;;;;;;;6.13;5.53;;;21.00;99.90;;;;;;5091875;28;20876;-71
2022/07/13 02:29:33;;;;;;;7.93;5.63;;;20.90;99.90;;;;;;5090991;28;20484;-72
2022/07/13 02:32:02;;;;;;;8.13;6.67;;;20.80;99.90;;;;;;5096764;28;20861;-72
2022/07/13 02:34:28;;;;;;;6.13;5.53;;;20.80;99.90;;;;;;5093599;28;20469;-72
2022/07/13 02:36:55;;;;;;;7.33;6.40;;;20.90;99.90;;;;;;5101653;28;20953;-72
2022/07/13 02:39:22;;;;;;;9.40;5.87;;;21.00;99.90;;;;;;5095780;28;20799;-72
2022/07/13 02:41:50;;;;;;;6.63;5.27;;;21.00;99.90;;;;;;5095043;28;20510;-72
2022/07/13 02:44:16;;;;;;;13.67;6.40;;;21.00;99.90;;;;;;5093149;28;20457;-72
2022/07/13 02:46:44;;;;;;;7.43;6.70;;;21.00;99.90;;;;;;5095485;28;20807;-72
2022/07/13 02:49:12;;;;;;;5.57;5.03;;;20.90;99.90;;;;;;5097675;28;20461;-72
2022/07/13 02:51:39;;;;;;;7.07;6.33;;;20.80;99.90;;;;;;5094325;28;20511;-72
2022/07/13 02:54:05;;;;;;;7.97;7.00;;;20.80;99.90;;;;;;5097924;28;20461;-72
2022/07/13 02:56:32;;;;;;;7.93;5.30;;;20.90;99.90;;;;;;5094052;28;20968;-72
2022/07/13 02:58:59;;;;;;;8.00;6.17;;;20.90;99.90;;;;;;5094547;28;20463;-72
2022/07/13 03:01:26;;;;;;;10.30;6.33;;;20.90;99.90;;;;;;5088053;28;21026;-72
2022/07/13 03:03:53;;;;;;;6.20;5.30;;;21.00;99.90;;;;;;5098803;28;20445;-73
2022/07/13 03:06:21;;;;;;;7.43;5.20;;;20.90;99.90;;;;;;5093218;28;20442;-71
2022/07/13 03:08:48;;;;;;;8.67;5.43;;;20.90;99.90;;;;;;5083137;28;20472;-72
2022/07/13 03:11:15;;;;;;;7.77;5.70;;;20.80;99.90;;;;;;5085228;28;21012;-71
2022/07/13 03:13:42;;;;;;;6.53;5.07;;;20.70;99.90;;;;;;5095682;28;20481;-72
2022/07/13 03:16:09;;;;;;;5.47;4.97;;;20.60;99.90;;;;;;5081439;28;20457;-72
2022/07/13 03:18:36;;;;;;;6.67;4.97;;;20.70;99.90;;;;;;5088170;28;20453;-72
2022/07/13 03:21:03;;;;;;;5.67;5.10;;;20.60;99.90;;;;;;5093670;28;20481;-72
2022/07/13 03:23:31;;;;;;;6.40;5.50;;;20.60;99.90;;;;;;5095502;28;20464;-71
2022/07/13 03:25:58;;;;;;;8.10;5.27;;;20.50;99.90;;;;;;5086543;28;20468;-71
2022/07/13 03:28:24;;;;;;;6.20;5.20;;;20.40;99.90;;;;;;5084367;28;20449;-70
2022/07/13 03:30:51;;;;;;;5.77;4.80;;;20.40;99.90;;;;;;5096943;28;20459;-70
2022/07/13 03:33:18;;;;;;;7.17;5.27;;;20.60;99.90;;;;;;5097838;27;20847;-70
2022/07/13 03:35:45;;;;;;;6.60;5.17;;;20.70;99.90;;;;;;5089662;28;20476;-71
2022/07/13 03:38:11;;;;;;;5.13;4.33;;;20.70;99.90;;;;;;5088511;28;20480;-70
2022/07/13 03:40:40;;;;;;;6.07;5.33;;;20.90;99.90;;;;;;5097010;28;20484;-70
2022/07/13 03:43:07;;;;;;;5.73;4.80;;;20.80;99.90;;;;;;5104415;28;20468;-71
2022/07/13 03:45:40;;;;;;;6.00;5.10;;;20.70;99.90;;;;;;5091513;28;20458;-72
2022/07/13 03:48:20;;;;;;;;;;;;;;;;;;;;;
2022/07/13 03:50:51;;;;;;;9.00;5.80;;;20.50;99.90;;;;;;5091508;27;20488;-72
2022/07/13 03:53:56;;;;;;;6.87;6.10;;;20.70;99.90;;;;;;5090381;28;20501;-71
2022/07/13 03:56:24;;;;;;;7.47;5.07;;;20.70;99.90;;;;;;5091616;28;20619;-71
2022/07/13 03:58:51;;;;;;;7.80;7.10;;;20.70;99.90;;;;;;5094529;27;20465;-71
2022/07/13 04:01:20;;;;;;;8.47;6.07;;;20.70;99.90;;;;;;5098966;27;20477;-72
2022/07/13 04:03:51;;;;;;;6.13;5.27;;;20.70;99.90;;;;;;5094843;27;21131;-71
2022/07/13 04:06:18;;;;;;;11.23;5.60;;;20.70;99.90;;;;;;5091949;28;20457;-73
2022/07/13 04:08:46;;;;;;;6.10;5.50;;;20.50;99.90;;;;;;5094289;27;20730;-72
2022/07/13 04:11:13;;;;;;;7.27;6.57;;;20.50;99.90;;;;;;5098551;28;20939;-72
2022/07/13 04:13:41;;;;;;;5.67;5.10;;;20.50;99.90;;;;;;5085218;28;20458;-73
2022/07/13 04:16:08;;;;;;;5.97;5.17;;;20.60;99.90;;;;;;5097006;27;20901;-72
2022/07/13 04:18:35;;;;;;;7.37;4.70;;;20.70;99.90;;;;;;5098226;28;20540;-73
2022/07/13 04:21:02;;;;;;;9.90;5.80;;;20.80;99.90;;;;;;5097871;28;20478;-71
2022/07/13 04:23:30;;;;;;;6.60;5.53;;;20.70;99.90;;;;;;5104308;27;20450;-71
2022/07/13 04:25:56;;;;;;;7.90;5.20;;;20.80;99.90;;;;;;5090780;28;20468;-71
2022/07/13 04:28:23;;;;;;;5.33;4.77;;;20.60;99.90;;;;;;5089046;27;23143;-72
2022/07/13 04:30:51;;;;;;;15.53;5.60;;;20.70;99.90;;;;;;5095580;28;20449;-72
2022/07/13 04:33:18;;;;;;;9.10;5.87;;;20.70;99.90;;;;;;5091033;28;20546;-71
2022/07/13 04:35:46;;;;;;;6.83;5.30;;;20.90;99.90;;;;;;5092258;28;20457;-71
2022/07/13 04:38:12;;;;;;;7.80;5.10;;;21.10;99.90;;;;;;5092865;28;20472;-71
2022/07/13 04:40:39;;;;;;;6.00;4.53;;;21.20;99.90;;;;;;5090209;28;20449;-72
2022/07/13 04:43:06;;;;;;;6.43;5.10;;;21.10;99.90;;;;;;5091943;28;20477;-71
2022/07/13 04:45:33;;;;;;;6.20;4.90;;;21.20;99.90;;;;;;5091590;28;20481;-72
2022/07/13 04:48:01;;;;;;;8.90;5.30;;;21.10;99.90;;;;;;5088979;28;20905;-72
2022/07/13 04:50:28;;;;;;;8.30;5.33;;;21.10;99.90;;;;;;5099136;28;20446;-72
2022/07/13 04:52:55;;;;;;;7.37;5.47;;;21.10;99.90;;;;;;5095463;28;20493;-71
2022/07/13 04:55:22;;;;;;;6.97;5.57;;;21.20;99.90;;;;;;5092955;28;20462;-71
2022/07/13 04:57:48;;;;;;;5.47;3.93;;;21.40;99.90;;;;;;5098063;28;20469;-71
2022/07/13 05:00:16;;;;;;;9.27;4.37;;;21.50;99.90;;;;;;5096681;28;20449;-71
2022/07/13 05:02:43;;;;;;;6.43;4.13;;;21.60;99.90;;;;;;5104973;27;20485;-71
2022/07/13 05:05:11;;;;;;;5.73;5.13;;;21.80;99.90;;;;;;5103110;28;20487;-71
2022/07/13 05:07:38;;;;;;;6.07;4.63;;;21.90;99.90;;;;;;5102619;28;20437;-71
2022/07/13 05:10:06;;;;;;;8.93;4.53;;;21.90;99.90;;;;;;5100154;28;20470;-70
2022/07/13 05:12:38;;;;;;;6.47;5.87;;;21.90;99.90;;;;;;5100084;28;20805;-71
2022/07/13 05:15:06;;;;;;;18.47;5.40;;;21.90;99.90;;;;;;5097643;28;20452;-70
2022/07/13 05:17:33;;;;;;;4.40;4.00;;;22.00;99.90;;;;;;5099860;28;20546;-71
2022/07/13 05:19:59;;;;;;;6.90;4.80;;;22.10;99.90;;;;;;5099441;28;20448;-71
2022/07/13 05:22:28;;;;;;;7.37;5.00;;;22.10;99.90;;;;;;5100578;28;20481;-71
2022/07/13 05:24:55;;;;;;;6.20;4.47;;;22.20;99.90;;;;;;5100521;27;20499;-71
2022/07/13 05:27:22;;;;;;;14.70;5.57;;;22.30;99.90;;;;;;5100705;27;20534;-70
2022/07/13 05:29:50;;;;;;;5.77;4.73;;;22.50;99.90;;;;;;5099121;28;20915;-70
2022/07/13 05:32:16;;;;;;;12.57;6.40;;;22.50;99.90;;;;;;5100557;28;20458;-70
2022/07/13 05:34:43;;;;;;;9.47;6.20;;;22.40;99.90;;;;;;5095961;28;20881;-69
2022/07/13 05:37:10;;;;;;;6.87;6.23;;;22.60;99.90;;;;;;5099095;28;20457;-69
2022/07/13 05:39:38;;;;;;;10.17;7.80;;;22.70;99.90;;;;;;5099223;27;20441;-71
2022/07/13 05:42:05;;;;;;;7.57;4.70;;;22.70;99.90;;;;;;5100861;28;20918;-72
2022/07/13 05:44:32;;;;;;;5.67;5.03;;;22.60;99.90;;;;;;5099051;28;20479;-69
2022/07/13 05:46:59;;;;;;;5.27;4.60;;;22.80;99.90;;;;;;5099894;28;20442;-71
2022/07/13 05:49:25;;;;;;;6.10;3.87;;;23.00;99.90;;;;;;5098299;28;20434;-70
2022/07/13 05:51:53;;;;;;;13.00;4.83;;;23.20;99.90;;;;;;5096978;28;20606;-71
2022/07/13 05:54:19;;;;;;;4.63;3.43;;;23.30;99.90;;;;;;5103325;28;20577;-71
2022/07/13 05:56:48;;;;;;;7.27;3.73;;;23.50;99.90;;;;;;5097154;28;20439;-71
2022/07/13 05:59:15;;;;;;;5.63;3.23;;;23.70;99.90;;;;;;5099519;28;20453;-71
2022/07/13 06:01:42;;;;;;;4.27;3.10;;;23.90;99.90;;;;;;5098006;28;20508;-69
2022/07/13 06:04:09;;;;;;;9.60;3.53;;;24.00;99.90;;;;;;5102681;28;20939;-69
2022/07/13 06:06:35;;;;;;;4.40;2.90;;;24.10;99.90;;;;;;5100908;28;20464;-70
2022/07/13 06:09:03;;;;;;;4.27;3.10;;;24.10;99.90;;;;;;5092423;28;20466;-69
2022/07/13 06:11:30;;;;;;;3.60;2.77;;;24.30;99.90;;;;;;5098283;28;20661;-69
2022/07/13 06:13:58;;;;;;;7.93;2.50;;;24.40;99.90;;;;;;5100116;28;20441;-70
2022/07/13 06:16:25;;;;;;;3.20;2.80;;;24.30;99.90;;;;;;5100784;28;20449;-70
2022/07/13 06:18:51;;;;;;;4.40;2.20;;;24.40;99.90;;;;;;5103929;28;20447;-70
2022/07/13 06:21:18;;;;;;;6.57;3.23;;;24.50;99.90;;;;;;5101847;28;20545;-70
2022/07/13 06:23:45;;;;;;;4.20;2.47;;;24.60;99.90;;;;;;5101276;28;20465;-70
2022/07/13 06:26:12;;;;;;;3.60;2.67;;;24.80;99.90;;;;;;5099682;28;20457;-70
2022/07/13 06:28:39;;;;;;;2.90;2.60;;;25.00;99.90;;;;;;5103992;28;20442;-70
2022/07/13 06:31:07;;;;;;;5.63;2.30;;;25.10;99.90;;;;;;5096425;28;20531;-70
2022/07/13 06:33:35;;;;;;;5.83;2.50;;;25.10;99.90;;;;;;5100112;28;20433;-70
2022/07/13 06:36:02;;;;;;;2.57;2.13;;;25.10;99.90;;;;;;5099736;28;20477;-70
2022/07/13 06:38:28;;;;;;;2.50;2.30;;;25.20;99.90;;;;;;5098649;28;20442;-70
2022/07/13 06:40:55;;;;;;;4.53;2.77;;;25.20;99.90;;;;;;5098667;28;20457;-70
2022/07/13 06:43:22;;;;;;;4.50;2.00;;;25.50;99.90;;;;;;5101177;28;20641;-71
2022/07/13 06:45:49;;;;;;;3.20;2.27;;;25.70;99.90;;;;;;5098271;28;20459;-70
2022/07/13 06:48:17;;;;;;;5.00;2.40;;;25.90;99.90;;;;;;5099023;28;20448;-70
2022/07/13 06:50:45;;;;;;;3.20;2.17;;;26.10;99.90;;;;;;5098368;28;20483;-68
2022/07/13 06:53:11;;;;;;;3.37;2.10;;;26.30;99.90;;;;;;5098776;28;20484;-70
2022/07/13 06:55:38;;;;;;;2.50;2.30;;;26.50;99.90;;;;;;5101042;28;21044;-71
2022/07/13 06:58:05;;;;;;;6.10;2.80;;;26.70;99.90;;;;;;5098891;28;20441;-71
2022/07/13 07:00:32;;;;;;;3.50;2.73;;;26.90;99.90;;;;;;5103973;28;20437;-71
2022/07/13 07:02:58;;;;;;;3.00;2.13;;;27.30;99.90;;;;;;5102245;28;20481;-71
2022/07/13 07:05:27;;;;;;;3.20;2.00;;;27.80;99.90;;;;;;5103403;28;20481;-70
2022/07/13 07:07:54;;;;;;;2.30;2.00;;;28.10;99.90;;;;;;5105876;28;20438;-71
2022/07/13 07:10:29;;;;;;;2.73;2.00;;;28.20;99.90;;;;;;5103016;28;20936;-71
2022/07/13 07:12:56;;;;;;;2.97;2.20;;;28.10;99.90;;;;;;5100562;28;20476;-70
2022/07/13 07:15:23;;;;;;;2.77;1.80;;;28.10;99.90;;;;;;5101420;28;20444;-70
2022/07/13 07:17:50;;;;;;;6.63;2.70;;;28.00;99.90;;;;;;5105007;28;20449;-70
2022/07/13 07:20:18;;;;;;;5.90;1.57;;;27.80;99.90;;;;;;5103098;28;20446;-71
2022/07/13 07:22:46;;;;;;;5.73;2.87;;;27.80;99.90;;;;;;5095645;28;20924;-71
2022/07/13 07:25:14;;;;;;;2.67;1.97;;;27.40;99.90;;;;;;5105252;27;20437;-71
2022/07/13 07:27:42;;;;;;;7.90;2.23;;;27.50;99.90;;;;;;5099454;27;20444;-70
2022/07/13 07:30:09;;;;;;;2.73;2.10;;;27.70;99.90;;;;;;5099496;28;20441;-71
2022/07/13 07:32:36;;;;;;;1.60;1.50;;;27.90;99.90;;;;;;5103223;28;20809;-71
2022/07/13 07:35:03;;;;;;;4.33;2.23;;;28.30;99.90;;;;;;5106380;28;20442;-71
2022/07/13 07:37:30;;;;;;;1.93;1.43;;;28.60;99.90;;;;;;5104957;27;20956;-71
2022/07/13 07:39:58;;;;;;;2.03;1.80;;;28.60;99.90;;;;;;5100944;27;20453;-71
2022/07/13 07:42:25;;;;;;;2.37;2.10;;;28.60;99.90;;;;;;5101404;28;20507;-70
2022/07/13 07:44:52;;;;;;;2.53;1.90;;;28.60;99.90;;;;;;5100849;28;20798;-71
2022/07/13 07:47:22;;;;;;;2.40;2.00;;;28.50;99.90;;;;;;5101041;28;20830;-71
2022/07/13 07:49:49;;;;;;;2.73;2.07;;;28.60;99.90;;;;;;5106208;28;20441;-71
2022/07/13 07:52:29;;;;;;;2.10;1.90;;;28.70;99.90;;;;;;5118223;22;20503;-75
2022/07/13 07:55:06;;;;;;;2.57;1.57;;;28.80;99.90;;;;;;5121426;27;21192;-75
2022/07/13 07:57:47;;;;;;;4.53;2.20;;;28.90;99.90;;;;;;5117689;27;20835;-75
2022/07/13 08:03:04;;;;;;;2.60;2.13;;;29.20;99.60;;;;;;5108986;27;20494;-75
2022/07/13 08:05:37;;;;;;;3.10;2.53;;;29.20;99.90;;;;;;5102209;28;20450;-75
2022/07/13 08:08:06;;;;;;;1.87;1.60;;;29.30;99.90;;;;;;5104424;28;23404;-75
2022/07/13 08:10:37;;;;;;;2.17;1.97;;;29.10;99.20;;;;;;5103174;27;20465;-75
2022/07/13 08:13:05;;;;;;;2.00;1.70;;;29.10;99.90;;;;;;5103856;28;20469;-74
2022/07/13 08:15:34;;;;;;;5.53;2.20;;;29.30;99.90;;;;;;5104214;28;20506;-75
2022/07/13 08:18:11;;;;;;;5.00;3.97;;;29.30;98.20;;;;;;5106181;28;20464;-74
2022/07/13 08:20:41;;;;;;;3.60;1.90;;;29.60;98.90;;;;;;5103904;28;20446;-75
2022/07/13 08:23:50;;;;;;;16.63;3.10;;;29.90;98.30;;;;;;5103475;28;20477;-74
2022/07/13 08:28:43;;;;;;;4.43;2.50;;;29.30;96.70;;;;;;5103430;28;20937;-75
2022/07/13 08:31:15;;;;;;;3.83;2.50;;;29.20;97.80;;;;;;5100007;28;20446;-75
2022/07/13 08:39:19;;;;;;;3.60;2.03;;;29.60;96.50;;;;;;5100408;28;20452;-75
2022/07/13 08:41:54;;;;;;;4.23;2.30;;;29.80;96.90;;;;;;5105005;28;20515;-74
2022/07/13 08:44:21;;;;;;;2.57;2.20;;;30.50;95.50;;;;;;5102497;28;20528;-75
2022/07/13 08:46:47;;;;;;;3.13;2.57;;;30.60;95.40;;;;;;5102807;28;20821;-74
2022/07/13 08:49:17;;;;;;;3.27;2.00;;;30.30;96.10;;;;;;5098561;28;20464;-75
2022/07/13 08:51:47;;;;;;;4.47;2.53;;;30.20;95.20;;;;;;5103529;28;20573;-74
2022/07/13 08:54:18;;;;;;;18.13;2.97;;;29.70;95.70;;;;;;5103760;28;20474;-75
2022/07/13 08:56:52;;;;;;;3.40;2.30;;;29.50;96.50;;;;;;5102159;28;20453;-75
2022/07/13 08:59:21;;;;;;;6.07;2.50;;;29.80;96.90;;;;;;5102051;28;20999;-76
2022/07/13 09:01:52;;;;;;;4.37;3.07;;;30.00;96.20;;;;;;5099369;28;20457;-75
2022/07/13 09:04:20;;;;;;;4.20;2.50;;;30.30;96.30;;;;;;5100702;28;20618;-75
2022/07/13 09:06:56;;;;;;;3.57;1.90;;;29.70;95.20;;;;;;5099627;28;20446;-75
2022/07/13 09:09:31;;;;;;;4.17;2.27;;;30.40;95.70;;;;;;5098763;28;20455;-75
2022/07/13 09:12:24;;;;;;;2.40;2.00;;;31.30;94.50;;;;;;5098352;27;20465;-75
2022/07/13 09:14:56;;;;;;;11.83;2.07;;;31.50;93.90;;;;;;5105664;28;21040;-75
2022/07/13 09:17:33;;;;;;;3.30;2.30;;;31.70;93.00;;;;;;5104917;28;20446;-76
2022/07/13 09:20:04;;;;;;;3.60;2.00;;;32.00;92.00;;;;;;5100542;28;20551;-76
2022/07/13 09:22:31;;;;;;;4.60;2.60;;;31.80;91.00;;;;;;5103659;28;20479;-75
2022/07/13 09:25:00;;;;;;;6.13;2.73;;;31.50;90.80;;;;;;5101052;28;20849;-76
2022/07/13 09:27:47;;;;;;;4.77;3.17;;;31.50;91.30;;;;;;5103144;28;21056;-76
2022/07/13 09:30:24;;;;;;;5.60;2.23;;;31.40;91.80;;;;;;5099096;27;20459;-76
2022/07/13 09:32:56;;;;;;;3.47;2.53;;;31.10;91.70;;;;;;5103412;28;20494;-76
2022/07/13 09:35:41;;;;;;;3.63;2.10;;;30.90;92.10;;;;;;5101183;28;20950;-76
2022/07/13 09:38:08;;;;;;;6.20;2.43;;;31.10;93.70;;;;;;5098233;28;20531;-75
2022/07/13 09:40:35;;;;;;;5.07;3.63;;;31.80;91.30;;;;;;5099247;28;20480;-76
2022/07/13 09:48:51;;;;;;;6.57;3.70;;;32.60;88.70;;;;;;5098027;28;20458;-75
2022/07/13 09:51:27;;;;;;;3.13;2.10;;;32.60;90.50;;;;;;5101018;28;20452;-74
2022/07/13 09:53:59;;;;;;;5.23;4.20;;;32.40;90.20;;;;;;5100350;28;20429;-75
2022/07/13 09:56:33;;;;;;;3.40;1.80;;;32.50;89.50;;;;;;5099865;28;20505;-75
2022/07/13 09:59:09;;;;;;;3.50;2.73;;;32.10;87.60;;;;;;5096245;28;20450;-75
2022/07/13 10:01:43;;;;;;;5.73;3.00;;;31.70;89.40;;;;;;5100687;28;20478;-75
2022/07/13 10:04:10;;;;;;;4.43;2.13;;;31.80;90.00;;;;;;5100611;28;20570;-75
2022/07/13 10:06:37;;;;;;;6.43;2.60;;;31.60;90.20;;;;;;5101120;28;20961;-75
2022/07/13 10:09:04;;;;;;;4.10;1.90;;;31.70;91.10;;;;;;5100523;28;20480;-75
2022/07/13 10:11:32;;;;;;;3.63;2.30;;;32.10;90.00;;;;;;5097291;28;20539;-75
2022/07/13 10:13:59;;;;;;;2.83;2.03;;;32.70;89.20;;;;;;5096978;28;20452;-76
2022/07/13 10:16:30;;;;;;;6.03;2.50;;;32.40;87.70;;;;;;5101254;28;20440;-76
2022/07/13 10:18:59;;;;;;;12.53;3.10;;;31.70;89.10;;;;;;5098330;28;20456;-76
2022/07/13 10:21:37;;;;;;;3.07;1.90;;;32.30;90.20;;;;;;5097961;28;20465;-75
2022/07/13 10:24:14;;;;;;;4.33;2.60;;;32.90;88.20;;;;;;5099992;28;20856;-76
2022/07/13 10:26:41;;;;;;;3.90;1.97;;;33.00;86.60;;;;;;5100094;28;20464;-75
2022/07/13 10:29:10;;;;;;;2.40;2.20;;;32.90;87.50;;;;;;5095575;28;20559;-75
2022/07/13 10:31:40;;;;;;;2.80;2.10;;;32.90;88.40;;;;;;5093952;28;20457;-75
2022/07/13 10:34:08;;;;;;;3.37;2.40;;;32.60;86.40;;;;;;5106155;27;20488;-75
2022/07/13 10:36:56;;;;;;;3.17;2.13;;;33.10;87.50;;;;;;5105680;28;20439;-75
2022/07/13 10:39:24;;;;;;;6.17;2.40;;;34.30;82.90;;;;;;5103508;28;20459;-75
2022/07/13 10:42:02;;;;;;;2.10;1.90;;;35.60;79.50;;;;;;5100637;28;20475;-76
2022/07/13 10:44:46;;;;;;;3.70;2.20;;;36.00;75.60;;;;;;5103161;28;20483;-76
2022/07/13 10:47:19;;;;;;;3.60;1.97;;;35.30;75.80;;;;;;5101798;28;20460;-76
2022/07/13 10:49:47;;;;;;;2.53;2.30;;;35.20;75.50;;;;;;5104408;28;20453;-75
2022/07/13 10:52:50;;;;;;;3.20;2.37;;;35.10;77.50;;;;;;5104018;28;20781;-76
2022/07/13 10:55:31;;;;;;;1.50;1.30;;;35.70;73.40;;;;;;5103938;27;20889;-75
2022/07/13 10:57:58;;;;;;;3.37;1.97;;;36.00;72.00;;;;;;5105448;28;20448;-74
2022/07/13 11:00:41;;;;;;;4.00;2.00;;;35.40;71.80;;;;;;5102156;28;20453;-75
2022/07/13 11:03:24;;;;;;;2.33;1.90;;;34.90;71.90;;;;;;5106019;28;20592;-76
2022/07/13 11:06:05;;;;;;;5.30;2.57;;;34.50;73.60;;;;;;5103804;28;20444;-76
2022/07/13 11:08:32;;;;;;;5.23;2.13;;;34.00;76.40;;;;;;5105474;28;21285;-76
2022/07/13 11:11:09;;;;;;;3.00;2.10;;;33.80;77.40;;;;;;5100179;28;20858;-75
2022/07/13 11:13:37;;;;;;;4.30;3.07;;;33.90;78.10;;;;;;5104414;28;20457;-75
2022/07/13 11:16:05;;;;;;;4.17;2.20;;;33.30;77.30;;;;;;5104901;28;20447;-75
2022/07/13 11:18:35;;;;;;;10.77;2.30;;;32.70;78.60;;;;;;5100588;28;20500;-75
2022/07/13 11:21:04;;;;;;;3.67;2.80;;;32.10;82.90;;;;;;5102122;28;20467;-75
2022/07/13 11:26:29;;;;;;;5.10;1.90;;;31.80;83.30;;;;;;5102787;28;20544;-76
2022/07/13 11:29:09;;;;;;;9.27;1.80;;;31.50;83.80;;;;;;5103652;28;20439;-76
2022/07/13 11:31:36;;;;;;;7.90;2.20;;;31.70;85.10;;;;;;5100208;28;20456;-75
2022/07/13 11:34:04;;;;;;;3.20;2.47;;;32.00;85.40;;;;;;5102095;28;20467;-76
2022/07/13 11:36:31;;;;;;;4.70;1.93;;;31.90;84.40;;;;;;5099984;28;20439;-76
2022/07/13 11:39:01;;;;;;;2.23;1.63;;;31.70;87.10;;;;;;5098610;27;20526;-76
2022/07/13 11:41:28;;;;;;;1.90;1.70;;;31.20;85.50;;;;;;5103612;28;20624;-76
2022/07/13 11:43:58;;;;;;;5.13;1.90;;;31.20;87.40;;;;;;5104577;28;20484;-75
2022/07/13 11:46:26;;;;;;;4.80;2.40;;;31.10;87.10;;;;;;5106476;28;20446;-76
2022/07/13 11:49:03;;;;;;;2.73;2.00;;;31.10;87.80;;;;;;5106681;28;20466;-76
2022/07/13 11:51:31;;;;;;;8.80;1.93;;;31.20;87.40;;;;;;5105737;28;20477;-74
2022/07/13 11:54:09;;;;;;;6.23;2.13;;;32.30;88.30;;;;;;5103239;28;20537;-76
2022/07/13 11:56:36;;;;;;;2.63;2.03;;;33.30;84.00;;;;;;5102524;28;20462;-75
2022/07/13 11:59:05;;;;;;;9.10;2.13;;;33.60;83.70;;;;;;5102566;27;20451;-76
2022/07/13 12:01:32;;;;;;;4.90;1.90;;;33.80;83.50;;;;;;5106101;28;20444;-76
2022/07/13 12:03:59;;;;;;;2.17;1.97;;;34.10;82.40;;;;;;5104257;28;20538;-76
2022/07/13 12:06:27;;;;;;;5.33;1.90;;;35.20;78.70;;;;;;5105668;27;20467;-74
2022/07/13 12:08:56;;;;;;;4.97;2.03;;;35.30;78.20;;;;;;5102252;28;20713;-75
2022/07/13 12:11:23;;;;;;;5.67;2.23;;;35.20;76.20;;;;;;5105975;28;20454;-76
2022/07/13 12:13:54;;;;;;;6.97;2.57;;;34.90;76.80;;;;;;5103380;27;20457;-76
2022/07/13 12:16:21;;;;;;;2.90;2.60;;;34.30;77.80;;;;;;5103794;28;20518;-76
2022/07/13 12:19:02;;;;;;;8.47;3.00;;;34.30;79.20;;;;;;5105557;28;20821;-76
2022/07/13 12:21:29;;;;;;;2.33;2.13;;;33.90;77.90;;;;;;5104873;28;20809;-75
2022/07/13 12:23:58;;;;;;;6.60;2.20;;;33.30;78.50;;;;;;5100909;28;20976;-76
2022/07/13 12:26:25;;;;;;;2.70;1.93;;;33.00;79.40;;;;;;5096479;28;20546;-76
2022/07/13 12:28:53;;;;;;;2.33;2.13;;;33.00;79.90;;;;;;5100136;28;20539;-76
2022/07/13 12:31:21;;;;;;;3.70;2.30;;;32.60;80.90;;;;;;5100873;28;20459;-76
2022/07/13 12:33:50;;;;;;;5.37;1.90;;;32.60;78.00;;;;;;5103584;28;20462;-74
2022/07/13 12:36:22;;;;;;;2.97;2.20;;;32.80;80.50;;;;;;5099721;28;20451;-76
2022/07/13 12:39:04;;;;;;;3.37;2.60;;;32.90;79.60;;;;;;5100558;28;20817;-77
2022/07/13 12:41:33;;;;;;;3.90;1.93;;;32.60;80.70;;;;;;5101469;28;20456;-77
2022/07/13 12:44:03;;;;;;;3.13;2.13;;;32.70;81.40;;;;;;5100200;28;20490;-76
2022/07/13 12:47:01;;;;;;;3.50;3.20;;;32.60;82.30;;;;;;5103387;28;21242;-75
2022/07/13 12:49:35;;;;;;;2.60;2.20;;;32.80;79.50;;;;;;5102217;28;20451;-76
2022/07/13 12:52:04;;;;;;;3.90;3.00;;;32.50;80.00;;;;;;5103260;28;20470;-76
2022/07/13 12:54:45;;;;;;;3.10;2.20;;;32.60;81.20;;;;;;5099082;28;20489;-76
2022/07/13 12:57:13;;;;;;;2.50;2.20;;;33.00;80.70;;;;;;5094745;28;20475;-76
2022/07/13 12:59:40;;;;;;;4.90;2.80;;;33.70;78.70;;;;;;5097452;28;20468;-76
2022/07/13 13:02:08;;;;;;;7.03;2.97;;;33.80;77.20;;;;;;5097479;28;20471;-76
2022/07/13 13:04:34;;;;;;;2.90;2.67;;;33.20;78.50;;;;;;5098986;28;20479;-73
2022/07/13 13:07:02;;;;;;;2.73;2.37;;;32.70;77.90;;;;;;5100846;28;20487;-75
2022/07/13 13:09:29;;;;;;;6.47;2.43;;;32.40;78.40;;;;;;5104466;28;20594;-75
2022/07/13 13:11:57;;;;;;;2.43;2.03;;;32.70;81.00;;;;;;5101574;28;20562;-76
2022/07/13 13:14:24;;;;;;;3.40;2.87;;;33.40;80.10;;;;;;5102113;28;20574;-77
2022/07/13 13:16:51;;;;;;;3.13;2.50;;;33.90;80.80;;;;;;5099413;28;20929;-77
2022/07/13 13:19:18;;;;;;;5.43;2.30;;;34.00;78.90;;;;;;5101973;28;20450;-76